新東京国際空港の過去48時間の天気

新東京国際空港 (Tokyo/New Tokyo Intl)

現在時刻: 11/24 00:14 JST (11/23 15:14 UTC) 以下の時間は現地時間です。

過去48時間のMETAR気象情報
時間 風向 風速(m/s) 視程 気温(℃) 湿度(%) 気圧(hPa) 天気現象
24 00:00 北北西 2 10km以上 6 70 1010
23 23:30 北北西 3 10km以上 6 76 1010
23 23:00 北西 3 10km以上 7 61 1009
23 22:30 北西 4 10km以上 9 57 1009
23 22:00 北西 5 10km以上 11 47 1009
23 21:30 北西 4 10km以上 11 58 1008
23 21:00 西 2 10km以上 12 54 1008
23 20:30 北西 5 10km以上 12 67 1007
23 20:00 西北西 2 10km以上 12 88 1007
23 19:30 2 10km以上 11 94 1006
23 19:00 南南西 2 10km以上 11 94 1006
23 18:30 南南西 2 9,000m 11 94 1005
23 18:00 南南西 2 9,000m 11 94 1005
23 17:30 2 9,000m 10 94 1004 地霧
23 17:00 南西 2 10km以上 11 94 1003 もや
23 16:30 西 2 10km以上 12 88 1002
23 16:00 北北西 2 10km以上 12 88 1002
23 15:30 北西 3 10km以上 13 88 1002
23 15:00 北西 4 8,000m 13 88 1001
23 14:30 北西 5 8,000m 13 88 1000
23 14:00 北西 5 5,000m 12 94 1000 もや
23 13:30 北西 5 5,000m 13 94 999 もや
23 13:00 6 6,000m 13 94 999 もや
23 12:30 北北東 4 3,500m 12 94 999 弱いしゅう雨 もや
23 12:20 4 3,200m 11 100 999 弱いしゅう雨 もや
23 12:00 北北東 4 3,000m 11 94 1000 弱いしゅう雨 もや
23 11:43 北北東 3 2,500m 10 100 1000 弱いしゅう雨 もや
23 11:30 北東 3 2,200m 10 100 1000 弱いしゅう雨 もや
23 11:00 北西 2 2,000m 9 100 1002 弱いしゅう雨 もや
23 10:38 西 3 2,000m 9 93 1003 弱いしゅう雨 もや
23 10:30 西 2 2,000m 9 100 1003 弱いしゅう雨 もや
23 10:00 北北西 4 2,200m 9 100 1003 しゅう雨 もや
23 09:30 北西 3 2,000m 8 100 1004 しゅう雨 もや
23 09:00 北西 2 1,800m 8 100 1005 しゅう雨 もや
23 08:43 西北西 2 1,500m 8 93 1005 しゅう雨 もや
23 08:30 北西 2 2,000m 8 93 1005 しゅう雨 もや
23 08:17 北北西 3 1,400m 7 100 1005 しゅう雨 もや
23 08:00 北西 4 1,600m 7 100 1005 しゅう雨 もや
23 07:30 北北西 4 2,000m 8 93 1006 しゅう雨 もや
23 07:00 北北西 4 2,800m 7 100 1006 しゅう雨 もや
23 06:43 北北西 4 2,800m 7 100 1006 しゅう雨 もや
23 06:30 北北西 4 2,800m 8 93 1006 しゅう雨 もや
23 06:11 北西 3 2,200m 7 100 1006 強いしゅう雨 もや
23 06:00 北北西 3 2,800m 7 100 1007 しゅう雨 もや
23 05:43 北北西 3 3,000m 7 100 1007 弱いしゅう雨 もや
23 05:30 北西 3 2,400m 7 100 1007 しゅう雨 もや
23 05:19 北北西 3 2,400m 7 100 1007 しゅう雨 もや
23 05:00 西北西 2 2,400m 7 100 1008 弱いしゅう雨 もや
23 04:46 北西 3 2,400m 7 100 1008 弱いしゅう雨 もや
23 04:30 北西 2 2,000m 7 100 1009 しゅう雨 もや
23 04:29 北西 2 2,000m 7 100 1009 しゅう雨 もや
23 04:18 北西 3 2,200m 7 100 1009 弱いしゅう雨 もや
23 04:00 北西 4 2,000m 7 93 1009 しゅう雨 もや
23 03:36 西北西 3 2,000m 7 93 1009 しゅう雨 もや
23 03:30 西北西 3 2,200m 7 93 1009 弱いしゅう雨 もや
23 03:00 北西 3 2,400m 7 100 1009 弱いしゅう雨 もや
23 02:30 北西 3 2,400m 7 93 1010 弱いしゅう雨 もや
23 02:00 北北西 3 3,000m 7 93 1010 弱いしゅう雨 もや
23 01:30 不定 1 3,000m 7 93 1011 弱いしゅう雨 もや
23 01:00 不定 1 3,500m 7 93 1011 弱いしゅう雨 もや
23 00:30 西北西 2 3,500m 7 93 1012 弱いしゅう雨 もや
23 00:00 北西 2 4,000m 7 93 1013 弱いしゅう雨 もや
22 23:30 西 2 4,000m 7 93 1013 弱いしゅう雨 もや
22 23:00 不定 1 4,000m 7 93 1014 弱いしゅう雨 もや
22 22:30 西北西 2 4,000m 7 93 1014 もや
22 22:00 北西 2 7,000m 7 87 1015
22 21:30 西北西 3 6,000m 7 87 1015 弱いしゅう雨 もや
22 21:17 西 4 4,000m 8 81 1016 しゅう雨 もや
22 21:00 西 3 7,000m 8 81 1016 弱いしゅう雨
22 20:30 北西 3 10km以上 9 71 1015 弱いしゅう雨
22 20:00 北北西 2 10km以上 9 71 1016
22 19:30 西北西 4 10km以上 9 71 1017
22 19:00 北北西 2 10km以上 10 66 1017
22 18:30 北北西 5 10km以上 10 66 1018
22 18:00 西北西 3 10km以上 10 66 1018
22 17:30 北西 2 10km以上 10 71 1018
22 17:00 北北東 3 10km以上 11 67 1018
22 16:30 北北西 2 10km以上 11 67 1019
22 16:00 西 2 10km以上 13 77 1019
22 15:30 2 10km以上 13 72 1019
22 15:00 3 10km以上 13 72 1019
22 14:30 南南東 2 10km以上 13 62 1019
22 14:00 不定 1 10km以上 13 58 1020
22 13:30 不定 1 10km以上 12 58 1020
22 13:00 不定 1 10km以上 12 58 1020
22 12:30 西南西 2 10km以上 11 58 1021
22 12:00 西北西 2 10km以上 11 58 1021
22 11:30 西北西 2 10km以上 10 58 1022
22 11:00 北西 2 10km以上 9 62 1023
22 10:30 西北西 3 10km以上 9 62 1023
22 10:00 北西 3 10km以上 8 61 1024
22 09:30 北北西 4 10km以上 8 61 1024
22 09:00 北西 2 10km以上 6 70 1025
22 08:30 北西 2 10km以上 4 75 1025
22 08:00 西北西 2 10km以上 3 81 1025
22 07:30 北西 3 10km以上 2 81 1025
22 07:00 西北西 2 10km以上 1 80 1025
22 06:30 北西 2 10km以上 -1 93 1025
22 06:00 西北西 2 10km以上 0 86 1025
22 05:30 北西 2 10km以上 0 86 1025
22 05:00 西北西 2 10km以上 0 93 1025
22 04:30 北西 2 10km以上 1 93 1025
22 04:00 北西 2 10km以上 0 93 1025
22 03:30 1 10km以上 0 93 1025
22 03:00 北西 2 10km以上 1 86 1026
22 02:30 3 10km以上 2 81 1026
22 02:00 2 10km以上 1 86 1026
22 01:30 北北西 2 10km以上 1 86 1026
22 01:00 北北西 2 10km以上 1 80 1026
22 00:30 北北西 2 10km以上 0 93 1026
RJAA 231500Z 33004KT 290V010 9999 FEW020 06/01 Q1010 NOSIG
RJAA 231430Z 33006KT 9999 FEW020 06/02 Q1010 NOSIG RMK 1CU020 A2982
RJAA 231400Z 32006KT 9999 FEW020 07/00 Q1009 NOSIG RMK 1CU020 A2982
RJAA 231330Z 32008KT 9999 FEW020 09/01 Q1009 NOSIG RMK 1CU020 A2981
RJAA 231300Z 31009KT 9999 FEW020 11/00 Q1009 NOSIG RMK 1CU020 A2979
RJAA 231230Z 32008KT 9999 FEW020 SCT090 11/03 Q1008 NOSIG RMK 1CU020 4AC090 A2978
RJAA 231200Z 28003KT 240V320 9999 FEW020 BKN070 12/03 Q1008 NOSIG RMK 1CU020 6AC070 A2977 P/RR
RJAA 231130Z 32009KT 9999 FEW020 BKN070 12/06 Q1007 NOSIG RMK 1CU020 7AC070 A2974 MOD TURB OBS AT 1108Z OVER NARITA BTN 11000FT AND 13000FT IN CMB B738 JJA1107 AND MOD TURB OBS AT 1120Z 20NM E NARITA 13000FT IN CMB B777 JAL4
RJAA 231100Z 29004KT 240V330 9999 FEW020 BKN070 12/10 Q1007 NOSIG RMK 1CU020 7AC070 A2974 MOD CHOP OBS AT 1032Z 10NM N CHOSHI 13000FT IN CMB B777 AAL170 AND MOD CHOP OBS AT 1035Z 5NM W TETRA BTN 12000FT AND 14000FT IN CMB B77L FDX5015
RJAA 231030Z 19003KT 170V240 9999 FEW020 BKN080 11/10 Q1006 BECMG TL1100 31008KT
RJAA 231000Z 21003KT 9999 FEW020 BKN070 11/10 Q1006 BECMG TL1030 30008KT
RJAA 230930Z 21003KT 9000 FEW020 BKN070 11/10 Q1005 BECMG TL1000 30008KT
RJAA 230900Z 20004KT 9000 FEW015 BKN070 11/10 Q1005 BECMG TL0930 31010KT
RJAA 230830Z 19003KT 9000 R34L/P1800N R34R/P1800N MIFG FEW010 BKN070 10/09 Q1004 BECMG TL0930 32010KT
RJAA 230800Z 23003KT 9999 BR FEW010 11/10 Q1003 BECMG TL0930 32010KT
RJAA 230730Z 27003KT 9999 FEW015 12/10 Q1002 NOSIG RMK 1CU015 A2961
RJAA 230700Z 34004KT 300V010 9999 FEW015 12/10 Q1002 NOSIG RMK 1CU015 A2960
RJAA 230630Z 31006KT 9999 FEW010 SCT070 BKN/// 13/11 Q1002 NOSIG
RJAA 230600Z 31008KT 8000 FEW008 SCT012 BKN/// 13/11 Q1001 NOSIG RMK 1ST008 3CU012 A2956
RJAA 230530Z 31009KT 8000 FEW005 SCT008 BKN012 13/11 Q1000 BECMG FEW005 BKN020
RJAA 230500Z 32010KT 5000 BR FEW004 BKN008 BKN015 12/11 Q1000 BECMG FEW005 BKN020
RJAA 230430Z 32010KT 5000 BR FEW004 SCT007 BKN160 13/12 Q0999 NOSIG RMK 1ST004 3ST007 6AC160 A2952 9999S
RJAA 230400Z 35011KT 6000 BR FEW003 SCT015 BKN120 13/12 Q0999 NOSIG RMK 1ST003 3CU015 6AC120 A2950 BR NE
RJAA 230330Z 02008KT 350V050 3500 -SHRA BR FEW002 SCT004 BKN015 12/11 Q0999 BECMG 6000 NSW
RJAA 230320Z 01007KT 330V050 3200 -SHRA BR FEW001 BKN003 BKN030 11/11 Q0999 RMK 1ST001 5ST003 6CU030 A2952
RJAA 230300Z 02007KT 350V060 3000 -SHRA BR FEW001 BKN003 BKN006 11/10 Q1000 NOSIG RMK 2ST001 5ST003 6ST006 A2953
RJAA 230243Z 02006KT 340V070 2500 -SHRA BR FEW001 BKN003 BKN006 10/10 Q1000 RMK 2ST001 5ST003 6ST006 A2954 P/FR
RJAA 230230Z 04005KT 360V080 2200 -SHRA BR FEW001 BKN003 BKN006 10/10 Q1000 NOSIG RMK 2ST001 5ST003 6ST006 A2954 P/FR
RJAA 230200Z 32004KT 2000 -SHRA BR FEW001 BKN004 BKN008 09/09 Q1002 NOSIG RMK 2ST001 5ST004 6ST008 A2959 MOD TURB OBS AT 0142Z 7NM S BINKS BTN 10000FT AND 8000FT IN DES A320 APJ522 P/FR
RJAA 230138Z 27005KT 2000 -SHRA BR FEW001 BKN003 BKN035 09/08 Q1003 RMK 2ST001 5ST003 6CU035 A2962
RJAA 230130Z 27003KT 2000 -SHRA BR FEW001 SCT003 BKN035 09/09 Q1003 TEMPO FEW001 BKN003
RJAA 230100Z 34007KT 2200 SHRA BR FEW001 BKN035 BKN070 09/09 Q1003 NOSIG RMK 1ST001 5CU035 7AC070 A2964 P/FR
RJAA 230030Z 31005KT 2000 SHRA BR FEW001 BKN035 BKN070 08/08 Q1004 TEMPO FEW001 BKN005
RJAA 230000Z 31004KT 1800 SHRA BR FEW001 BKN030 08/08 Q1005 TEMPO FEW001 BKN003
RJAA 222343Z 30004KT 260V330 1500 R34L/P1800N R34R/P1800N SHRA BR FEW001 SCT002 BKN030 08/07 Q1005 RMK 1ST001 3ST002 7CU030 A2970
RJAA 222330Z 32004KT 2000 SHRA BR FEW001 BKN002 BKN030 08/07 Q1005 NOSIG RMK 1ST001 6ST002 7CU030 A2970
RJAA 222317Z 33006KT 1400 R34L/P1800N R34R/P1800N SHRA BR FEW001 BKN002 BKN030 07/07 Q1005 RMK 1ST001 6ST002 7CU030 A2969
RJAA 222300Z 32007KT 1600 SHRA BR FEW001 BKN002 BKN015 07/07 Q1005 NOSIG RMK 1ST001 5ST002 6CU015 A2969
RJAA 222230Z 33007KT 2000 R34L/P1800N R34R/P1800N SHRA BR FEW001 BKN002 BKN030 08/07 Q1006 NOSIG
RJAA 222200Z 34008KT 2800 SHRA BR FEW001 BKN002 BKN030 07/07 Q1006 NOSIG RMK 1ST001 5ST002 7CU030 A2971
RJAA 222143Z 34007KT 2800 SHRA BR FEW001 BKN002 BKN020 07/07 Q1006 RMK 1ST001 5ST002 6CU020 A2972
RJAA 222130Z 33008KT 2800 SHRA BR FEW001 SCT020 BKN035 08/07 Q1006 TEMPO FEW001 BKN003
RJAA 222111Z 32006KT 2200 +SHRA BR FEW001 SCT002 BKN020 07/07 Q1006 RMK 1ST001 3ST002 7CU020 A2973
RJAA 222100Z 33006KT 2800 SHRA BR FEW001 SCT002 BKN020 07/07 Q1007 TEMPO FEW001 BKN003
RJAA 222043Z 33006KT 3000 -SHRA BR FEW001 SCT002 BKN025 07/07 Q1007 RMK 1ST001 4ST002 7CU025 A2974
RJAA 222030Z 32005KT 2400 SHRA BR FEW001 BKN002 BKN025 07/07 Q1007 NOSIG RMK 1ST001 5ST002 7CU025 A2975
RJAA 222019Z 33005KT 2400 SHRA BR FEW001 BKN002 BKN025 07/07 Q1007 RMK 1ST001 5ST002 7CU025 A2975
RJAA 222000Z 30003KT 220V010 2400 -SHRA BR FEW001 BKN002 BKN012 07/07 Q1008 TEMPO SHRA RMK 1ST001 5ST002 7CU012 A2978
RJAA 221946Z 32005KT 2400 -SHRA BR FEW001 BKN002 BKN015 07/07 Q1008 RMK 1ST001 5ST002 7CU015 A2978
RJAA 221930Z 32004KT 270V350 2000 SHRA BR FEW001 BKN002 BKN015 07/07 Q1009 NOSIG RMK 1ST001 6ST002 7CU015 A2979
RJAA 221929Z 31004KT 270V350 2000 SHRA BR FEW001 BKN002 BKN015 07/07 Q1009 RMK 1ST001 6ST002 7CU015 A2979
RJAA 221918Z 32005KT 2200 R34L/P1800N R34R/P1800N -SHRA BR FEW001 BKN002 BKN015 07/07 Q1009 RMK 1ST001 6ST002 7CU015 A2979
RJAA 221900Z 32007KT 2000 R34L/P1800N R34R/P1800N SHRA BR FEW001 BKN002 BKN018 07/06 Q1009 NOSIG
RJAA 221836Z 30006KT 2000 R34L/P1800N R34R/P1800N SHRA BR FEW001 BKN002 BKN020 07/06 Q1009 RMK 2ST001 6ST002 7CU020 A2981
RJAA 221830Z 30006KT 2200 R34L/P1800N R34R/P1800N -SHRA BR FEW001 BKN002 BKN020 07/06 Q1009 TEMPO SHRA RMK 2ST001 6ST002 7CU020 A2980
RJAA 221800Z 32005KT 2400 R34L/P1800N R34R/1600VP1800N -SHRA BR FEW001 BKN002 BKN020 07/07 Q1009 NOSIG RMK 1ST001 5ST002 7CU020 A2980
RJAA 221730Z 32005KT 2400 R34L/P1800N R34R/P1800N -SHRA BR FEW001 SCT002 BKN025 07/06 Q1010 TEMPO FEW001 BKN003
RJAA 221700Z 33005KT 3000 -SHRA BR FEW001 BKN080 07/06 Q1010 TEMPO FEW003 BKN005 RMK 1ST001 7AC080 A2984
RJAA 221630Z VRB01KT 3000 -SHRA BR FEW015 BKN040 BKN090 07/06 Q1011 NOSIG RMK 1CU015 6CU040 7AC090 A2986
RJAA 221600Z VRB01KT 3500 -SHRA BR FEW015 BKN040 BKN090 07/06 Q1011 NOSIG RMK 1CU015 5CU040 7AC090 A2986
RJAA 221530Z 29003KT 230V330 3500 -SHRA BR FEW015 BKN030 BKN070 07/06 Q1012 NOSIG RMK 1CU015 5CU030 7AC070 A2989
RJAA 221500Z 32003KT 4000 -SHRA BR FEW015 SCT030 BKN070 07/06 Q1013 NOSIG RMK 1CU015 3CU030 7AC070 A2991
RJAA 221430Z 27003KT 240V310 4000 -SHRA BR FEW020 SCT030 BKN060 07/06 Q1013 NOSIG RMK 1CU020 4CU030 6SC060 A2993
RJAA 221400Z VRB02KT 4000 -SHRA BR FEW020 SCT040 BKN060 07/06 Q1014 NOSIG RMK 1CU020 3CU040 6SC060 A2996
RJAA 221330Z 30004KT 4000 BR FEW020 BKN070 07/06 Q1014 NOSIG RMK 1CU020 7AC070 A2996
RJAA 221300Z 32004KT 7000 FEW020 SCT040 BKN060 07/05 Q1015 NOSIG RMK 1CU020 3CU040 6SC060 A2997
RJAA 221230Z 30005KT 260V330 6000 -SHRA BR FEW020 SCT040 BKN060 07/05 Q1015 NOSIG RMK 1CU020 3CU040 7SC060 A2999 BR NE
RJAA 221217Z 28007KT 240V320 4000 SHRA BR FEW020 SCT030 BKN050 08/05 Q1016 RMK 1CU020 3CU030 7SC050 A3001
RJAA 221200Z 28005KT 240V310 7000 -SHRA FEW030 SCT040 BKN060 08/05 Q1016 NOSIG RMK 1CU030 3CU040 7SC060 A3000
RJAA 221130Z 31005KT 270V340 9999 -SHRA FEW030 SCT040 BKN070 09/04 Q1015 NOSIG RMK 1CU030 3CU040 7AC070 A3000
RJAA 221100Z 33003KT 9999 FEW030 SCT080 BKN100 09/04 Q1016 NOSIG RMK 1CU030 3AC080 7AC100 A3000 P/FR
RJAA 221030Z 30007KT 9999 FEW030 SCT040 BKN080 09/04 Q1017 NOSIG RMK 1CU030 3CU040 7AC080 A3005
RJAA 221000Z 34004KT 290V040 9999 FEW030 SCT060 BKN080 10/04 Q1017 NOSIG RMK 1CU030 3SC060 6AC080 A3003
RJAA 220930Z 34009KT 9999 FEW030 SCT070 BKN100 10/04 Q1018 NOSIG RMK 1CU030 4AC070 7AC100 A3006
RJAA 220900Z 30006KT 250V330 9999 FEW030 SCT090 BKN120 10/04 Q1018 NOSIG RMK 1CU030 4AC090 7AC120 A3008
RJAA 220830Z 31004KT 9999 FEW030 BKN130 10/05 Q1018 NOSIG RMK 1CU030 7AC130 A3008
RJAA 220800Z 02005KT 9999 FEW020 BKN140 11/05 Q1018 NOSIG RMK 1CU020 7AC140 A3008
RJAA 220730Z 34004KT 9999 FEW020 BKN140 11/05 Q1019 NOSIG RMK 1CU020 7AC140 A3009
RJAA 220700Z 26003KT 9999 FEW020 BKN130 BKN/// 13/09 Q1019 NOSIG RMK 1CU020 5AC130 A3010
RJAA 220630Z 17003KT 9999 FEW025 BKN170 BKN/// 13/08 Q1019 NOSIG
RJAA 220600Z 17005KT 9999 FEW030 BKN180 BKN/// 13/08 Q1019 NOSIG
RJAA 220530Z 16003KT 120V220 9999 FEW030 SCT180 BKN/// 13/06 Q1019 NOSIG
RJAA 220500Z VRB02KT 9999 FEW030 BKN/// 13/05 Q1020 BECMG 18005KT
RJAA 220430Z VRB01KT 9999 FEW030 BKN/// 12/04 Q1020 BECMG 17005KT
RJAA 220400Z VRB01KT 9999 FEW030 BKN/// 12/04 Q1020 BECMG 17005KT
RJAA 220330Z 24003KT 200V310 9999 FEW030 SCT060 BKN/// 11/03 Q1021 BECMG 18006KT
RJAA 220300Z 29003KT 210V340 9999 FEW030 BKN/// 11/03 Q1021 WS R34L NOSIG
RJAA 220230Z 29003KT 260V340 9999 FEW030 BKN060 BKN/// 10/02 Q1022 NOSIG
RJAA 220200Z 31004KT 260V350 9999 FEW030 BKN060 BKN/// 09/02 Q1023 NOSIG
RJAA 220130Z 30005KT 240V340 9999 FEW030 BKN060 BKN/// 09/02 Q1023 NOSIG
RJAA 220100Z 31005KT 9999 FEW030 BKN/// 08/01 Q1024 NOSIG
RJAA 220030Z 34008KT 9999 FEW030 SCT/// 08/01 Q1024 NOSIG
RJAA 220000Z 32004KT 280V350 9999 FEW030 SCT060 06/01 Q1025 NOSIG RMK 1CU030 4SC060 A3028
RJAA 212330Z 31003KT 270V340 9999 FEW030 SCT060 04/M00 Q1025 NOSIG RMK 1CU030 3SC060 A3028
RJAA 212300Z 30004KT 260V340 9999 FEW030 SCT060 03/M00 Q1025 NOSIG RMK 1CU030 3SC060 A3029
RJAA 212230Z 32005KT 9999 FEW030 BKN060 02/M01 Q1025 NOSIG RMK 1CU030 5SC060 A3029
RJAA 212200Z 29003KT 250V350 9999 FEW030 BKN060 01/M02 Q1025 NOSIG RMK 1CU030 5SC060 A3029
RJAA 212130Z 32004KT 9999 FEW030 BKN060 M01/M02 Q1025 NOSIG RMK 1CU030 5SC060 A3028
RJAA 212100Z 30003KT 9999 FEW030 SCT060 M00/M02 Q1025 NOSIG RMK 1CU030 3SC060 A3029
RJAA 212030Z 31003KT 9999 FEW030 M00/M02 Q1025 NOSIG RMK 1CU030 A3029
RJAA 212000Z 29003KT 9999 FEW030 00/M01 Q1025 NOSIG RMK 1CU030 A3029
RJAA 211930Z 31003KT 9999 FEW030 SCT060 01/M00 Q1025 NOSIG RMK 1CU030 4SC060 A3029
RJAA 211900Z 32004KT 9999 FEW030 M00/M01 Q1025 NOSIG RMK 1CU030 A3029
RJAA 211830Z 35002KT 9999 FEW030 00/M01 Q1025 NOSIG RMK 1CU030 A3028
RJAA 211800Z 32003KT 9999 FEW030 01/M01 Q1026 NOSIG RMK 1CU030 A3030
RJAA 211730Z 36005KT 9999 FEW030 02/M01 Q1026 NOSIG RMK 1CU030 A3031
RJAA 211700Z 35003KT 9999 FEW030 01/M01 Q1026 NOSIG RMK 1CU030 A3031
RJAA 211630Z 34003KT 290V360 9999 FEW030 01/M01 Q1026 NOSIG RMK 1CU030 A3032
RJAA 211600Z 34004KT 9999 FEW030 01/M02 Q1026 NOSIG RMK 1CU030 A3032
RJAA 211530Z 34003KT 9999 FEW030 00/M01 Q1026 NOSIG RMK 1CU030 A3032